createdAt,value
2022-12-08T00:00:40.797Z,32.28
2022-12-08T00:01:42.536Z,28.27
2022-12-08T00:02:44.515Z,23.98
2022-12-08T00:03:47.006Z,24.23
2022-12-08T00:05:06.928Z,22.67
2022-12-08T00:06:37.809Z,20.73
2022-12-08T00:07:57.683Z,18.63
2022-12-08T00:09:17.880Z,19.05
2022-12-08T00:10:47.953Z,19.33
2022-12-08T00:11:41.101Z,16.67
2022-12-08T00:12:42.516Z,19.48
2022-12-08T00:13:44.210Z,19.50
2022-12-08T00:14:47.601Z,17.33
2022-12-08T00:15:52.071Z,18.05
2022-12-08T00:16:54.529Z,20.42
2022-12-08T00:17:56.181Z,18.45
2022-12-08T00:18:57.607Z,18.58
2022-12-08T00:19:59.208Z,19.48
2022-12-08T00:21:01.172Z,19.58
2022-12-08T00:22:03.690Z,17.52
2022-12-08T00:23:05.193Z,20.02
2022-12-08T00:24:07.096Z,18.55
2022-12-08T00:25:08.752Z,19.23
2022-12-08T00:26:10.246Z,17.77
2022-12-08T00:27:13.693Z,20.80
2022-12-08T00:28:15.397Z,18.08
2022-12-08T00:29:17.945Z,19.20
2022-12-08T00:30:19.477Z,19.90
2022-12-08T00:31:20.969Z,19.00
2022-12-08T00:32:22.892Z,17.15
2022-12-08T00:33:24.700Z,20.20
2022-12-08T00:34:26.347Z,17.08
2022-12-08T00:35:27.777Z,19.55
2022-12-08T00:36:29.519Z,22.00
2022-12-08T00:37:31.271Z,18.58
2022-12-08T00:38:32.708Z,19.75
2022-12-08T00:39:34.117Z,20.13
2022-12-08T00:40:35.580Z,19.73
2022-12-08T00:41:55.720Z,19.95
2022-12-08T00:42:57.144Z,18.48
2022-12-08T00:43:58.562Z,19.13
2022-12-08T00:44:59.995Z,19.77
2022-12-08T00:46:01.593Z,18.83
2022-12-08T00:47:03.451Z,21.73
2022-12-08T00:48:05.282Z,19.15
2022-12-08T00:49:07.184Z,18.48
2022-12-08T00:50:09.432Z,19.33
2022-12-08T00:51:10.853Z,20.33
2022-12-08T00:52:13.256Z,19.80
2022-12-08T00:53:14.678Z,17.05
2022-12-08T00:54:16.673Z,19.23
2022-12-08T00:55:18.124Z,21.20
2022-12-08T00:56:19.569Z,20.45
2022-12-08T00:57:21.005Z,18.15
2022-12-08T00:58:22.426Z,18.48
2022-12-08T00:59:23.845Z,18.92
2022-12-08T01:00:26.184Z,20.27
2022-12-08T01:01:27.914Z,19.48
2022-12-08T01:02:29.834Z,18.00
2022-12-08T01:03:31.299Z,18.35
2022-12-08T01:04:32.764Z,18.80
2022-12-08T01:05:34.189Z,18.88
2022-12-08T01:06:36.312Z,20.08
2022-12-08T01:07:38.173Z,19.02
2022-12-08T01:08:40.901Z,17.85
2022-12-08T01:09:42.546Z,18.52
2022-12-08T01:10:43.966Z,18.77
2022-12-08T01:11:46.285Z,19.27
2022-12-08T01:12:47.711Z,19.90
2022-12-08T01:13:49.165Z,19.20
2022-12-08T01:14:50.576Z,18.73
2022-12-08T01:15:51.972Z,19.63
2022-12-08T01:16:53.618Z,20.50
2022-12-08T01:17:55.586Z,17.50
2022-12-08T01:18:58.733Z,18.50
2022-12-08T01:20:02.305Z,20.20
2022-12-08T01:21:05.832Z,20.25
2022-12-08T01:22:07.262Z,20.48
2022-12-08T01:23:08.694Z,19.10
2022-12-08T01:24:15.211Z,22.73
2022-12-08T01:25:16.688Z,19.85
2022-12-08T01:26:19.652Z,17.58
2022-12-08T01:27:21.228Z,17.98
2022-12-08T01:28:22.641Z,19.58
2022-12-08T01:29:24.262Z,17.52
2022-12-08T01:30:25.740Z,17.38
2022-12-08T01:31:27.220Z,18.00
2022-12-08T01:32:29.503Z,19.55
2022-12-08T01:33:31.970Z,18.25
2022-12-08T01:34:33.441Z,18.13
2022-12-08T01:35:34.930Z,18.83
2022-12-08T01:36:37.276Z,19.20
2022-12-08T01:37:38.709Z,19.23
2022-12-08T01:38:40.118Z,19.73
2022-12-08T01:39:41.787Z,17.73
2022-12-08T01:40:43.518Z,18.58
2022-12-08T01:41:47.098Z,17.73
2022-12-08T01:42:49.909Z,16.98
2022-12-08T01:44:08.266Z,19.88
2022-12-08T01:45:24.714Z,17.05
2022-12-08T01:46:27.356Z,18.15
2022-12-08T01:47:49.986Z,18.42
2022-12-08T01:49:01.105Z,18.23
2022-12-08T01:50:04.134Z,16.40
2022-12-08T01:51:06.977Z,18.73
2022-12-08T01:52:24.091Z,17.75
2022-12-08T01:53:32.833Z,18.42
2022-12-08T01:54:39.716Z,17.17
2022-12-08T01:55:47.210Z,20.25
2022-12-08T01:56:57.434Z,18.40
2022-12-08T01:58:06.069Z,18.30
2022-12-08T01:59:07.684Z,18.65
2022-12-08T02:00:12.326Z,19.35
2022-12-08T02:01:14.312Z,19.60
2022-12-08T02:02:16.134Z,18.05
2022-12-08T02:03:58.378Z,18.73
2022-12-08T02:05:00.377Z,20.90
2022-12-08T02:06:03.343Z,18.85
2022-12-08T02:07:08.555Z,18.38
2022-12-08T02:08:13.066Z,19.13
2022-12-08T02:09:14.822Z,18.65
2022-12-08T02:10:19.234Z,18.00
2022-12-08T02:11:21.509Z,20.17
2022-12-08T02:12:23.510Z,19.00
2022-12-08T02:13:25.631Z,19.38
2022-12-08T02:14:27.061Z,19.88
2022-12-08T02:15:40.754Z,18.65
2022-12-08T02:16:54.012Z,19.15
2022-12-08T02:18:04.291Z,20.08
2022-12-08T02:19:31.971Z,18.92
2022-12-08T02:20:52.346Z,20.40
2022-12-08T02:22:04.482Z,18.55
2022-12-08T02:23:19.216Z,20.92
2022-12-08T02:24:40.438Z,19.67
2022-12-08T02:25:51.793Z,19.75
2022-12-08T02:27:20.935Z,19.08
2022-12-08T02:28:47.272Z,17.52
2022-12-08T02:30:07.602Z,19.55
2022-12-08T02:31:28.132Z,20.95
2022-12-08T02:32:44.659Z,19.75
2022-12-08T02:33:48.965Z,19.95
2022-12-08T02:34:59.206Z,19.90
2022-12-08T02:36:15.949Z,21.63
2022-12-08T02:37:43.703Z,22.70
2022-12-08T02:39:00.656Z,21.67
2022-12-08T02:40:08.621Z,19.33
2022-12-08T02:41:19.130Z,18.98
2022-12-08T02:42:50.336Z,19.00
2022-12-08T02:44:06.452Z,21.20
2022-12-08T02:45:13.937Z,17.80
2022-12-08T02:46:24.673Z,17.20
2022-12-08T02:47:28.523Z,19.92
2022-12-08T02:48:30.833Z,20.60
2022-12-08T02:49:33.795Z,21.27
2022-12-08T02:50:35.391Z,22.08
2022-12-08T02:51:36.845Z,21.00
2022-12-08T02:52:44.163Z,21.70
2022-12-08T02:53:46.739Z,18.63
2022-12-08T02:54:56.435Z,19.42
2022-12-08T02:56:14.346Z,19.70
2022-12-08T02:57:40.808Z,21.52
2022-12-08T02:58:45.259Z,19.75
2022-12-08T03:00:09.806Z,19.25
2022-12-08T03:01:43.407Z,21.45
2022-12-08T03:03:33.171Z,19.90
2022-12-08T03:04:41.820Z,21.08
2022-12-08T03:05:55.803Z,19.02
2022-12-08T03:07:01.891Z,20.77
2022-12-08T03:08:22.601Z,21.17
2022-12-08T03:09:38.270Z,20.05
2022-12-08T03:11:01.681Z,20.77
2022-12-08T03:12:14.253Z,20.20
2022-12-08T03:13:20.449Z,19.15
2022-12-08T03:14:22.747Z,19.20
2022-12-08T03:15:24.613Z,20.98
2022-12-08T03:16:30.676Z,18.92
2022-12-08T03:17:32.571Z,19.73
2022-12-08T03:18:39.596Z,19.85
2022-12-08T03:19:42.979Z,21.05
2022-12-08T03:20:47.687Z,17.17
2022-12-08T03:21:53.181Z,18.55
2022-12-08T03:22:59.266Z,18.48
2022-12-08T03:24:04.226Z,23.25
2022-12-08T03:25:07.882Z,20.38
2022-12-08T03:26:15.269Z,19.45
2022-12-08T03:27:26.853Z,19.85
2022-12-08T03:28:28.339Z,21.45
2022-12-08T03:29:31.782Z,19.95
2022-12-08T03:30:38.783Z,19.35
2022-12-08T03:31:45.804Z,17.73
2022-12-08T03:33:02.020Z,21.40
2022-12-08T03:34:05.782Z,19.88
2022-12-08T03:35:17.584Z,18.90
2022-12-08T03:36:19.821Z,18.55
2022-12-08T03:37:21.842Z,16.63
2022-12-08T03:38:23.386Z,20.40
2022-12-08T03:39:24.823Z,20.15
2022-12-08T03:40:26.286Z,19.60
2022-12-08T03:41:27.797Z,18.48
2022-12-08T03:42:29.245Z,18.48
2022-12-08T03:43:30.729Z,17.92
2022-12-08T03:44:32.230Z,20.08
2022-12-08T03:45:33.792Z,17.17
2022-12-08T03:46:35.208Z,18.67
2022-12-08T03:47:37.567Z,17.33
2022-12-08T03:48:39.037Z,18.25
2022-12-08T03:49:40.841Z,19.13
2022-12-08T03:50:42.287Z,18.08
2022-12-08T03:51:43.722Z,16.90
2022-12-08T03:52:45.747Z,17.25
2022-12-08T03:53:48.265Z,17.27
2022-12-08T03:54:49.747Z,19.00
2022-12-08T03:55:53.288Z,21.17
2022-12-08T03:56:54.737Z,18.98
2022-12-08T03:57:56.530Z,18.30
2022-12-08T03:58:58.684Z,20.27
2022-12-08T04:00:00.141Z,20.20
2022-12-08T04:01:01.564Z,18.25
2022-12-08T04:02:03.388Z,19.10
2022-12-08T04:03:06.355Z,18.60
2022-12-08T04:04:07.890Z,18.10
2022-12-08T04:05:09.459Z,18.65
2022-12-08T04:06:10.949Z,18.48
2022-12-08T04:07:12.684Z,19.17
2022-12-08T04:08:14.255Z,18.63
2022-12-08T04:09:15.919Z,18.02
2022-12-08T04:10:17.453Z,16.98
2022-12-08T04:11:19.591Z,19.25
2022-12-08T04:12:21.339Z,17.13
2022-12-08T04:13:22.845Z,19.80
2022-12-08T04:14:24.332Z,19.13
2022-12-08T04:15:25.754Z,17.48
2022-12-08T04:16:28.003Z,19.15
2022-12-08T04:17:29.526Z,17.88
2022-12-08T04:18:31.930Z,16.73
2022-12-08T04:19:33.422Z,18.42
2022-12-08T04:20:39.055Z,18.50
2022-12-08T04:21:40.860Z,16.70
2022-12-08T04:22:42.531Z,18.00
2022-12-08T04:23:44.872Z,17.05
2022-12-08T04:24:46.380Z,18.50
2022-12-08T04:25:49.190Z,20.35
2022-12-08T04:26:51.135Z,18.23
2022-12-08T04:27:52.537Z,18.42
2022-12-08T04:28:53.957Z,17.58
2022-12-08T04:29:55.388Z,16.13
2022-12-08T04:30:56.872Z,18.50
2022-12-08T04:31:58.843Z,17.17
2022-12-08T04:33:00.332Z,17.73
2022-12-08T04:34:01.763Z,17.58
2022-12-08T04:35:03.301Z,19.73
2022-12-08T04:36:06.160Z,20.05
2022-12-08T04:37:07.701Z,18.75
2022-12-08T04:38:09.161Z,19.20
2022-12-08T04:39:10.597Z,17.92
2022-12-08T04:40:12.902Z,18.17
2022-12-08T04:41:14.502Z,18.38
2022-12-08T04:42:16.299Z,19.05
2022-12-08T04:43:17.769Z,18.38
2022-12-08T04:44:19.250Z,19.05
2022-12-08T04:45:20.780Z,16.55
2022-12-08T04:46:22.304Z,17.70
2022-12-08T04:47:23.935Z,17.92
2022-12-08T04:48:25.441Z,19.02
2022-12-08T04:49:26.904Z,18.67
2022-12-08T04:50:28.766Z,20.85
2022-12-08T04:51:30.289Z,17.92
2022-12-08T04:52:32.245Z,20.10
2022-12-08T04:53:33.881Z,18.90
2022-12-08T04:54:35.416Z,20.48
2022-12-08T04:55:41.976Z,16.83
2022-12-08T04:56:43.759Z,18.05
2022-12-08T04:57:45.325Z,17.17
2022-12-08T04:58:47.009Z,16.60
2022-12-08T04:59:48.458Z,16.92
2022-12-08T05:00:50.292Z,17.83
2022-12-08T05:01:52.598Z,18.38
2022-12-08T05:02:54.212Z,19.95
2022-12-08T05:03:57.094Z,19.45
2022-12-08T05:04:58.759Z,19.85
2022-12-08T05:06:01.184Z,18.65
2022-12-08T05:07:02.928Z,18.65
2022-12-08T05:08:05.525Z,18.30
2022-12-08T05:09:07.066Z,18.17
2022-12-08T05:10:08.800Z,19.38
2022-12-08T05:11:11.731Z,19.95
2022-12-08T05:12:13.455Z,18.13
2022-12-08T05:13:14.863Z,18.52
2022-12-08T05:14:18.352Z,18.42
2022-12-08T05:15:20.089Z,19.35
2022-12-08T05:16:21.546Z,17.55
2022-12-08T05:17:23.424Z,17.48
2022-12-08T05:18:24.944Z,20.52
2022-12-08T05:19:26.324Z,18.10
2022-12-08T05:20:28.203Z,20.00
2022-12-08T05:21:30.309Z,20.02
2022-12-08T05:22:31.852Z,17.33
2022-12-08T05:23:33.500Z,19.55
2022-12-08T05:24:35.176Z,17.40
2022-12-08T05:25:36.599Z,17.75
2022-12-08T05:26:38.126Z,18.25
2022-12-08T05:27:39.550Z,18.20
2022-12-08T05:28:42.683Z,17.05
2022-12-08T05:29:44.473Z,18.60
2022-12-08T05:30:45.965Z,18.45
2022-12-08T05:31:47.789Z,22.33
2022-12-08T05:32:49.271Z,19.13
2022-12-08T05:33:51.979Z,18.30
2022-12-08T05:34:53.456Z,19.25
2022-12-08T05:35:54.953Z,19.80
2022-12-08T05:36:56.732Z,19.75
2022-12-08T05:37:58.203Z,18.92
2022-12-08T05:38:59.717Z,17.65
2022-12-08T05:40:01.535Z,18.90
2022-12-08T05:41:03.752Z,18.08
2022-12-08T05:42:05.688Z,20.40
2022-12-08T05:43:07.531Z,16.48
2022-12-08T05:44:09.025Z,19.02
2022-12-08T05:45:10.790Z,18.05
2022-12-08T05:46:13.550Z,17.42
2022-12-08T05:47:15.126Z,18.17
2022-12-08T05:48:16.856Z,18.08
2022-12-08T05:49:18.446Z,18.75
2022-12-08T05:50:19.875Z,15.68
2022-12-08T05:51:24.075Z,17.75
2022-12-08T05:52:25.503Z,17.67
2022-12-08T05:53:27.670Z,18.98
2022-12-08T05:54:29.136Z,18.85
2022-12-08T05:55:30.596Z,20.02
2022-12-08T05:56:32.391Z,19.33
2022-12-08T05:57:33.829Z,18.23
2022-12-08T05:58:35.306Z,22.70
2022-12-08T05:59:37.570Z,19.15
2022-12-08T06:00:39.246Z,17.45
2022-12-08T06:01:41.221Z,19.85
2022-12-08T06:02:42.872Z,18.95
2022-12-08T06:03:44.419Z,18.55
2022-12-08T06:04:45.825Z,20.48
2022-12-08T06:05:47.865Z,19.52
2022-12-08T06:06:49.897Z,17.63
2022-12-08T06:07:51.386Z,18.20
2022-12-08T06:08:53.314Z,17.95
2022-12-08T06:09:54.819Z,18.63
2022-12-08T06:10:56.284Z,18.77
2022-12-08T06:11:57.784Z,17.58
2022-12-08T06:12:59.619Z,16.02
2022-12-08T06:14:02.126Z,19.30
2022-12-08T06:15:04.218Z,18.17
2022-12-08T06:16:07.110Z,20.05
2022-12-08T06:17:08.744Z,18.17
2022-12-08T06:18:10.896Z,18.73
2022-12-08T06:19:12.377Z,18.40
2022-12-08T06:20:13.830Z,17.67
2022-12-08T06:21:16.543Z,18.33
2022-12-08T06:22:17.939Z,19.08
2022-12-08T06:23:19.363Z,18.48
2022-12-08T06:24:20.822Z,17.65
2022-12-08T06:25:22.615Z,18.35
2022-12-08T06:26:24.076Z,20.00
2022-12-08T06:27:25.543Z,20.70
2022-12-08T06:28:27.076Z,20.88
2022-12-08T06:29:28.532Z,20.27
2022-12-08T06:30:29.957Z,20.90
2022-12-08T06:31:31.441Z,19.85
2022-12-08T06:32:32.921Z,19.88
2022-12-08T06:33:34.483Z,19.60
2022-12-08T06:34:35.891Z,18.73
2022-12-08T06:35:37.670Z,18.27
2022-12-08T06:36:39.138Z,17.90
2022-12-08T06:37:40.551Z,18.75
2022-12-08T06:38:43.833Z,17.73
2022-12-08T06:39:45.925Z,19.95
2022-12-08T06:40:54.090Z,17.27
2022-12-08T06:42:13.885Z,17.05
2022-12-08T06:43:15.338Z,20.52
2022-12-08T06:44:16.781Z,20.80
2022-12-08T06:45:18.378Z,19.73
2022-12-08T06:46:20.594Z,19.75
2022-12-08T06:47:26.165Z,19.90
2022-12-08T06:48:27.999Z,19.40
2022-12-08T06:49:29.406Z,19.17
2022-12-08T06:50:30.942Z,18.58
2022-12-08T06:51:32.394Z,19.92
2022-12-08T06:52:37.639Z,18.88
2022-12-08T06:53:44.074Z,20.30
2022-12-08T06:54:45.601Z,19.33
2022-12-08T06:55:59.270Z,19.40
2022-12-08T06:57:01.229Z,19.08
2022-12-08T06:58:02.934Z,18.17
2022-12-08T06:59:04.522Z,19.55
2022-12-08T07:00:06.933Z,18.63
2022-12-08T07:01:12.775Z,18.83
2022-12-08T07:02:14.328Z,19.00
2022-12-08T07:03:16.069Z,18.23
2022-12-08T07:04:17.524Z,19.55
2022-12-08T07:05:19.055Z,18.38
2022-12-08T07:06:25.424Z,19.42
2022-12-08T07:07:26.970Z,18.80
2022-12-08T07:08:28.520Z,18.88
2022-12-08T07:09:31.451Z,18.75
2022-12-08T07:10:33.710Z,21.02
2022-12-08T07:11:35.192Z,20.10
2022-12-08T07:12:36.650Z,18.08
2022-12-08T07:13:38.141Z,18.27
2022-12-08T07:14:39.811Z,20.33
2022-12-08T07:15:41.267Z,18.88
2022-12-08T07:16:42.837Z,18.17
2022-12-08T07:17:44.333Z,20.98
2022-12-08T07:18:45.752Z,19.95
2022-12-08T07:19:50.094Z,18.02
2022-12-08T07:20:51.633Z,20.25
2022-12-08T07:21:53.063Z,19.45
2022-12-08T07:22:54.710Z,19.10
2022-12-08T07:23:58.021Z,18.40
2022-12-08T07:24:59.630Z,20.55
2022-12-08T07:26:05.651Z,25.75
2022-12-08T07:27:07.139Z,25.25
2022-12-08T07:28:11.852Z,24.02
2022-12-08T07:29:13.466Z,24.98
2022-12-08T07:30:15.126Z,20.05
2022-12-08T07:31:20.799Z,19.35
2022-12-08T07:32:22.430Z,18.13
2022-12-08T07:33:24.761Z,19.02
2022-12-08T07:34:26.199Z,19.85
2022-12-08T07:35:27.649Z,17.98
2022-12-08T07:36:29.078Z,17.17
2022-12-08T07:37:30.583Z,17.08
2022-12-08T07:38:32.273Z,17.80
2022-12-08T07:39:33.714Z,18.60
2022-12-08T07:40:37.027Z,19.85
2022-12-08T07:41:38.490Z,20.60
2022-12-08T07:42:39.939Z,18.13
2022-12-08T07:43:42.192Z,20.88
2022-12-08T07:44:43.608Z,18.48
2022-12-08T07:45:45.787Z,19.90
2022-12-08T07:46:47.287Z,18.67
2022-12-08T07:47:48.743Z,18.17
2022-12-08T07:48:50.463Z,21.80
2022-12-08T07:49:51.935Z,17.52
2022-12-08T07:51:01.753Z,16.88
2022-12-08T07:52:03.243Z,17.08
2022-12-08T07:53:05.234Z,17.38
2022-12-08T07:54:06.673Z,20.65
2022-12-08T07:55:09.101Z,18.95
2022-12-08T07:56:12.316Z,19.25
2022-12-08T07:57:14.067Z,19.50
2022-12-08T07:58:15.465Z,19.23
2022-12-08T07:59:16.911Z,20.08
2022-12-08T08:00:19.487Z,18.48
2022-12-08T08:01:26.675Z,19.95
2022-12-08T08:02:28.435Z,18.90
2022-12-08T08:03:30.111Z,17.60
2022-12-08T08:04:31.596Z,20.60
2022-12-08T08:05:33.385Z,19.73
2022-12-08T08:06:35.130Z,16.35
2022-12-08T08:07:37.232Z,18.42
2022-12-08T08:08:38.774Z,16.45
2022-12-08T08:09:40.280Z,19.85
2022-12-08T08:10:41.846Z,17.88
2022-12-08T08:11:55.914Z,18.65
2022-12-08T08:13:04.775Z,18.13
2022-12-08T08:14:06.461Z,20.95
2022-12-08T08:15:09.305Z,16.40
2022-12-08T08:16:13.404Z,17.92
2022-12-08T08:17:15.087Z,16.88
2022-12-08T08:18:16.597Z,17.98
2022-12-08T08:19:19.114Z,18.17
2022-12-08T08:20:21.634Z,19.20
2022-12-08T08:21:45.202Z,17.73
2022-12-08T08:23:49.993Z,18.90
2022-12-08T08:24:51.768Z,21.45
2022-12-08T08:25:53.315Z,24.33
2022-12-08T08:26:55.319Z,28.02
2022-12-08T08:27:59.788Z,27.08
2022-12-08T08:29:01.543Z,23.27
2022-12-08T08:30:06.248Z,19.92
2022-12-08T08:31:08.015Z,19.05
2022-12-08T08:32:09.466Z,19.80
2022-12-08T08:33:11.331Z,21.67
2022-12-08T08:34:12.971Z,20.23
2022-12-08T08:35:14.540Z,17.90
2022-12-08T08:36:15.984Z,18.20
2022-12-08T08:37:17.509Z,18.65
2022-12-08T08:38:19.052Z,18.00
2022-12-08T08:39:20.511Z,18.13
2022-12-08T08:40:22.362Z,19.25
2022-12-08T08:41:23.778Z,18.05
2022-12-08T08:42:25.276Z,18.38
2022-12-08T08:43:32.922Z,19.33
2022-12-08T08:44:39.424Z,19.02
2022-12-08T08:45:40.874Z,18.67
2022-12-08T08:46:42.539Z,19.75
2022-12-08T08:47:44.192Z,18.83
2022-12-08T08:48:45.814Z,18.67
2022-12-08T08:49:47.389Z,20.40
2022-12-08T08:50:48.785Z,20.70
2022-12-08T08:51:50.294Z,16.02
2022-12-08T08:52:51.723Z,19.45
2022-12-08T08:53:53.174Z,18.48
2022-12-08T08:54:54.717Z,17.48
2022-12-08T08:55:56.153Z,19.27
2022-12-08T08:56:58.596Z,18.58
2022-12-08T08:58:00.027Z,16.42
2022-12-08T08:59:03.032Z,18.73
2022-12-08T09:01:07.906Z,17.90
2022-12-08T09:02:17.903Z,19.50
2022-12-08T09:03:19.449Z,18.15
2022-12-08T09:04:22.390Z,18.67
2022-12-08T09:06:25.955Z,17.98
2022-12-08T09:07:27.536Z,17.77
2022-12-08T09:08:29.030Z,21.02
2022-12-08T09:09:31.683Z,17.63
2022-12-08T09:10:33.295Z,17.67
2022-12-08T09:11:34.836Z,16.65
2022-12-08T09:12:36.246Z,19.58
2022-12-08T09:13:38.168Z,21.23
2022-12-08T09:14:40.013Z,19.08
2022-12-08T09:15:41.609Z,16.90
2022-12-08T09:16:43.544Z,18.42
2022-12-08T09:17:45.046Z,19.40
2022-12-08T09:18:48.273Z,17.35
2022-12-08T09:19:49.806Z,16.80
2022-12-08T09:20:51.284Z,18.25
2022-12-08T09:21:53.012Z,18.92
2022-12-08T09:22:54.512Z,19.70
2022-12-08T09:23:58.164Z,20.05
2022-12-08T09:24:59.747Z,17.90
2022-12-08T09:26:02.845Z,18.75
2022-12-08T09:29:07.513Z,18.83
2022-12-08T09:30:09.320Z,18.25
2022-12-08T09:31:10.787Z,17.95
2022-12-08T09:32:12.356Z,17.63
2022-12-08T09:33:13.813Z,17.60
2022-12-08T09:34:15.473Z,20.35
2022-12-08T09:35:17.077Z,18.77
2022-12-08T09:36:19.687Z,17.60
2022-12-08T09:37:21.137Z,17.58
2022-12-08T09:38:22.631Z,20.25
2022-12-08T09:39:24.170Z,16.55
2022-12-08T09:40:27.003Z,18.73
2022-12-08T09:41:48.358Z,19.85
2022-12-08T09:43:21.173Z,16.70
2022-12-08T09:44:59.849Z,16.02
2022-12-08T09:46:07.502Z,17.60
2022-12-08T09:47:28.397Z,17.40
2022-12-08T09:48:42.764Z,19.33
2022-12-08T09:50:16.152Z,25.13
2022-12-08T09:51:17.731Z,20.20
2022-12-08T09:52:24.211Z,20.08
2022-12-08T09:53:50.832Z,16.88
2022-12-08T09:54:52.359Z,18.27
2022-12-08T09:55:58.642Z,16.85
2022-12-08T09:57:05.382Z,17.63
2022-12-08T09:58:15.869Z,17.30
2022-12-08T09:59:31.529Z,18.60
2022-12-08T10:00:40.134Z,15.80
2022-12-08T10:01:42.042Z,16.70
2022-12-08T10:02:47.542Z,15.05
2022-12-08T10:03:49.217Z,18.02
2022-12-08T10:04:51.511Z,19.35
2022-12-08T10:06:04.827Z,18.77
2022-12-08T10:07:39.444Z,17.08
2022-12-08T10:08:55.747Z,15.73
2022-12-08T10:10:36.702Z,17.73
2022-12-08T10:11:41.219Z,17.85
2022-12-08T10:12:49.794Z,17.13
2022-12-08T10:14:16.363Z,16.60
2022-12-08T10:15:36.054Z,13.90
2022-12-08T10:16:47.025Z,17.13
2022-12-08T10:17:51.718Z,17.42
2022-12-08T10:19:01.546Z,15.57
2022-12-08T10:20:15.889Z,18.27
2022-12-08T10:21:25.838Z,14.50
2022-12-08T10:22:33.922Z,17.17
2022-12-08T10:23:39.560Z,16.15
2022-12-08T10:24:48.855Z,15.20
2022-12-08T10:25:56.397Z,14.57
2022-12-08T10:26:58.218Z,16.75
2022-12-08T10:27:59.658Z,14.15
2022-12-08T10:29:04.337Z,15.32
2022-12-08T10:30:13.320Z,14.85
2022-12-08T10:31:16.231Z,15.43
2022-12-08T10:32:20.830Z,15.00
2022-12-08T10:33:22.561Z,13.95
2022-12-08T10:34:24.538Z,13.95
2022-12-08T10:35:56.814Z,13.93
2022-12-08T10:37:00.678Z,13.07
2022-12-08T10:38:03.995Z,12.98
2022-12-08T10:39:35.767Z,13.93
2022-12-08T10:40:43.837Z,12.02
2022-12-08T10:41:47.206Z,13.05
2022-12-08T10:42:55.596Z,14.80
2022-12-08T10:44:00.870Z,14.52
2022-12-08T10:45:15.231Z,13.43
2022-12-08T10:46:20.749Z,15.98
2022-12-08T10:47:25.216Z,12.90
2022-12-08T10:48:29.703Z,12.50
2022-12-08T10:49:32.406Z,13.77
2022-12-08T10:50:33.885Z,12.20
2022-12-08T10:51:38.627Z,12.20
2022-12-08T10:52:40.894Z,13.10
2022-12-08T10:53:46.161Z,12.77
2022-12-08T10:54:52.334Z,12.32
2022-12-08T10:56:08.152Z,11.45
2022-12-08T10:57:20.809Z,11.55
2022-12-08T10:58:31.165Z,11.10
2022-12-08T10:59:34.170Z,13.50
2022-12-08T11:00:39.227Z,12.80
2022-12-08T11:01:42.598Z,11.60
2022-12-08T11:03:22.345Z,11.02
2022-12-08T11:04:26.511Z,12.90
2022-12-08T11:05:33.922Z,13.43
2022-12-08T11:06:38.357Z,11.50
2022-12-08T11:07:47.124Z,10.77
2022-12-08T11:08:52.925Z,13.60
2022-12-08T11:09:58.242Z,11.57
2022-12-08T11:10:59.756Z,12.75
2022-12-08T11:12:22.067Z,12.82
2022-12-08T11:13:27.151Z,12.45
2022-12-08T11:14:32.117Z,11.75
2022-12-08T11:15:38.248Z,12.35
2022-12-08T11:16:43.148Z,10.48
2022-12-08T11:17:48.688Z,11.88
2022-12-08T11:18:58.584Z,12.27
2022-12-08T11:20:03.374Z,14.48
2022-12-08T11:21:14.637Z,13.05
2022-12-08T11:22:22.115Z,14.55
2022-12-08T11:23:26.020Z,12.02
2022-12-08T11:24:32.262Z,12.98
2022-12-08T11:25:36.233Z,13.27
2022-12-08T11:26:38.340Z,13.15
2022-12-08T11:28:04.514Z,11.43
2022-12-08T11:29:08.919Z,12.70
2022-12-08T11:30:19.453Z,12.57
2022-12-08T11:31:35.594Z,13.25
2022-12-08T11:32:40.420Z,11.13
2022-12-08T11:33:44.214Z,11.57
2022-12-08T11:34:58.435Z,12.73
2022-12-08T11:36:11.773Z,10.25
2022-12-08T11:37:28.613Z,9.88
2022-12-08T11:38:40.889Z,10.35
2022-12-08T11:39:48.214Z,12.32
2022-12-08T11:40:58.807Z,11.82
2022-12-08T11:42:03.560Z,9.40
2022-12-08T11:43:40.964Z,12.32
2022-12-08T11:44:49.794Z,11.07
2022-12-08T11:45:59.046Z,10.63
2022-12-08T11:47:24.176Z,12.25
2022-12-08T11:48:33.737Z,10.48
2022-12-08T11:49:40.942Z,10.75
2022-12-08T11:50:49.760Z,11.43
2022-12-08T11:51:57.483Z,11.02
2022-12-08T11:53:01.365Z,12.25
2022-12-08T11:54:07.055Z,9.32
2022-12-08T11:55:23.538Z,11.52
2022-12-08T11:56:32.359Z,12.38
2022-12-08T11:57:33.845Z,11.98
2022-12-08T11:58:41.077Z,11.50
2022-12-08T11:59:49.694Z,10.60
2022-12-08T12:00:51.188Z,12.02
2022-12-08T12:01:53.260Z,12.73
2022-12-08T12:03:04.759Z,10.23
2022-12-08T12:04:31.516Z,10.48
2022-12-08T12:06:13.156Z,9.45
2022-12-08T12:07:23.066Z,11.90
2022-12-08T12:08:45.575Z,14.23
2022-12-08T12:10:24.764Z,13.43
2022-12-08T12:12:16.126Z,12.55
2022-12-08T12:13:32.345Z,16.58
2022-12-08T12:14:52.670Z,13.55
2022-12-08T12:16:26.954Z,13.02
2022-12-08T12:17:51.136Z,12.52
2022-12-08T12:18:57.625Z,10.32
2022-12-08T12:20:03.661Z,10.18
2022-12-08T12:21:16.266Z,12.43
2022-12-08T12:22:22.058Z,12.57
2022-12-08T12:23:31.757Z,11.52
2022-12-08T12:24:37.692Z,10.68
2022-12-08T12:25:50.596Z,13.00
2022-12-08T12:27:15.021Z,10.35
2022-12-08T12:28:17.730Z,10.60
2022-12-08T12:29:23.715Z,10.80
2022-12-08T12:30:27.966Z,11.82
2022-12-08T12:31:34.042Z,11.02
2022-12-08T12:32:46.897Z,12.73
2022-12-08T12:33:50.644Z,10.93
2022-12-08T12:35:00.915Z,11.88
2022-12-08T12:36:06.421Z,10.80
2022-12-08T12:37:12.699Z,11.73
2022-12-08T12:38:44.425Z,10.30
2022-12-08T12:39:53.304Z,12.27
2022-12-08T12:41:02.784Z,10.65
2022-12-08T12:42:05.404Z,14.30
2022-12-08T12:43:12.460Z,11.43
2022-12-08T12:44:13.874Z,12.45
2022-12-08T12:45:18.346Z,11.25
2022-12-08T12:46:23.244Z,11.32
2022-12-08T12:47:52.561Z,12.15
2022-12-08T12:49:34.239Z,10.48
2022-12-08T12:51:47.892Z,10.57
2022-12-08T12:52:49.768Z,12.13
2022-12-08T12:53:51.258Z,11.15
2022-12-08T12:54:52.930Z,13.38
2022-12-08T12:55:58.678Z,12.30
2022-12-08T12:57:09.527Z,11.30
2022-12-08T12:58:34.928Z,11.25
2022-12-08T12:59:55.185Z,11.27
2022-12-08T13:01:13.185Z,10.90
2022-12-08T13:02:21.840Z,11.75
2022-12-08T13:03:24.644Z,9.73
2022-12-08T13:04:37.408Z,11.40
2022-12-08T13:05:50.970Z,12.05
2022-12-08T13:06:52.480Z,11.50
2022-12-08T13:08:14.439Z,10.73
2022-12-08T13:09:22.063Z,11.43
2022-12-08T13:10:26.613Z,10.88
2022-12-08T13:11:28.155Z,10.85
2022-12-08T13:12:30.007Z,10.15
2022-12-08T13:13:31.872Z,10.18
2022-12-08T13:14:37.135Z,11.25
2022-12-08T13:15:41.582Z,11.30
2022-12-08T13:16:43.078Z,9.55
2022-12-08T13:17:46.895Z,11.27
2022-12-08T13:18:57.553Z,9.60
2022-12-08T13:20:02.685Z,9.63
2022-12-08T13:21:05.742Z,10.63
2022-12-08T13:23:37.750Z,10.40
2022-12-08T13:24:39.191Z,10.40
2022-12-08T13:25:44.828Z,9.80
2022-12-08T13:27:10.691Z,10.10
2022-12-08T13:28:31.182Z,11.07
2022-12-08T13:29:37.299Z,10.18
2022-12-08T13:30:50.582Z,9.75
2022-12-08T13:32:07.252Z,12.07
2022-12-08T13:33:19.117Z,11.10
2022-12-08T13:34:41.972Z,12.25
2022-12-08T13:35:50.941Z,10.07
2022-12-08T13:37:01.782Z,9.27
2022-12-08T13:38:03.532Z,10.02
2022-12-08T13:39:06.263Z,11.23
2022-12-08T13:40:18.363Z,10.70
2022-12-08T13:41:34.494Z,11.05
2022-12-08T13:42:58.832Z,10.57
2022-12-08T13:46:26.534Z,9.48
2022-12-08T13:47:34.179Z,10.90
2022-12-08T13:49:36.594Z,10.63
2022-12-08T13:57:34.902Z,10.52
2022-12-08T13:58:38.308Z,11.50
2022-12-08T13:59:44.698Z,12.65
2022-12-08T14:01:13.657Z,9.32
2022-12-08T14:02:36.207Z,10.30
2022-12-08T14:04:30.850Z,11.10
2022-12-08T14:05:40.742Z,10.50
2022-12-08T14:06:48.103Z,10.90
2022-12-08T14:07:53.333Z,9.30
2022-12-08T14:09:03.780Z,11.32
2022-12-08T14:10:18.108Z,10.98
2022-12-08T14:11:43.319Z,11.73
2022-12-08T14:12:48.083Z,10.13
2022-12-08T14:13:49.874Z,10.57
2022-12-08T14:15:15.143Z,10.32
2022-12-08T14:16:36.026Z,14.25
2022-12-08T14:17:40.131Z,10.15
2022-12-08T14:18:41.609Z,10.75
2022-12-08T14:19:52.245Z,10.68
2022-12-08T14:21:20.767Z,10.50
2022-12-08T14:22:23.330Z,10.55
2022-12-08T14:23:24.796Z,10.52
2022-12-08T14:24:28.753Z,10.43
2022-12-08T14:25:32.776Z,11.45
2022-12-08T14:26:35.415Z,12.88
2022-12-08T14:27:38.297Z,11.50
2022-12-08T14:28:44.778Z,11.25
2022-12-08T14:29:52.819Z,10.50